createdAt,value
2018-06-05T00:01:16.737Z,21.23
2018-06-05T00:03:44.227Z,22.67
2018-06-05T00:06:11.725Z,24.53
2018-06-05T00:08:39.212Z,23.97
2018-06-05T00:11:06.765Z,22.40
2018-06-05T00:13:34.276Z,22.47
2018-06-05T00:16:01.821Z,23.10
2018-06-05T00:18:29.317Z,23.93
2018-06-05T00:20:56.836Z,22.63
2018-06-05T00:23:24.339Z,25.90
2018-06-05T00:25:51.864Z,23.30
2018-06-05T00:28:19.355Z,22.97
2018-06-05T00:30:46.862Z,24.83
2018-06-05T00:33:14.370Z,23.43
2018-06-05T00:35:41.771Z,23.53
2018-06-05T00:38:09.304Z,23.10
2018-06-05T00:40:36.864Z,24.40
2018-06-05T00:43:04.449Z,23.53
2018-06-05T00:45:31.947Z,24.63
2018-06-05T00:48:00.280Z,23.77
2018-06-05T00:50:27.808Z,24.30
2018-06-05T00:52:55.341Z,23.90
2018-06-05T00:55:22.861Z,23.33
2018-06-05T00:57:50.372Z,25.87
2018-06-05T01:00:18.382Z,24.80
2018-06-05T01:02:45.924Z,24.57
2018-06-05T01:05:13.425Z,25.03
2018-06-05T01:07:40.965Z,25.40
2018-06-05T01:10:08.464Z,26.60
2018-06-05T01:12:35.989Z,25.47
2018-06-05T01:15:03.625Z,25.47
2018-06-05T01:17:31.141Z,25.27
2018-06-05T01:19:58.646Z,25.47
2018-06-05T01:22:26.746Z,26.63
2018-06-05T01:24:54.232Z,26.83
2018-06-05T01:27:21.745Z,25.43
2018-06-05T01:29:49.252Z,25.93
2018-06-05T01:32:16.756Z,26.73
2018-06-05T01:34:44.258Z,25.40
2018-06-05T01:37:11.801Z,27.20
2018-06-05T01:39:39.325Z,26.87
2018-06-05T01:42:06.915Z,28.47
2018-06-05T01:44:34.459Z,26.10
2018-06-05T01:47:01.981Z,27.23
2018-06-05T01:49:35.141Z,27.97
2018-06-05T01:52:02.999Z,29.47
2018-06-05T01:54:30.497Z,28.73
2018-06-05T01:56:58.007Z,28.30
2018-06-05T01:59:25.537Z,29.60
2018-06-05T02:01:53.037Z,27.97
2018-06-05T02:04:20.549Z,28.50
2018-06-05T02:06:48.056Z,27.70
2018-06-05T02:09:15.564Z,28.20
2018-06-05T02:11:43.060Z,28.33
2018-06-05T02:14:10.667Z,29.00
2018-06-05T02:16:38.167Z,27.17
2018-06-05T02:19:05.926Z,26.90
2018-06-05T02:21:33.412Z,28.90
2018-06-05T02:24:00.928Z,29.10
2018-06-05T02:26:28.408Z,28.80
2018-06-05T02:28:55.925Z,27.50
2018-06-05T02:31:23.443Z,28.30
2018-06-05T02:33:50.982Z,30.23
2018-06-05T02:36:18.487Z,27.83
2018-06-05T02:38:46.037Z,28.83
2018-06-05T02:41:13.917Z,29.40
2018-06-05T02:43:41.428Z,32.00
2018-06-05T02:46:08.845Z,32.40
2018-06-05T02:48:36.349Z,31.50
2018-06-05T02:51:04.317Z,30.13
2018-06-05T02:53:31.855Z,31.17
2018-06-05T02:55:59.368Z,31.77
2018-06-05T02:58:26.897Z,32.67
2018-06-05T03:00:54.332Z,30.90
2018-06-05T03:03:21.848Z,31.50
2018-06-05T03:05:49.993Z,31.50
2018-06-05T03:08:17.579Z,35.00
2018-06-05T03:10:45.086Z,34.60
2018-06-05T03:13:12.626Z,34.10
2018-06-05T03:15:40.143Z,33.10
2018-06-05T03:18:07.632Z,34.93
2018-06-05T03:20:35.151Z,34.57
2018-06-05T03:23:02.652Z,34.40
2018-06-05T03:25:30.212Z,33.50
2018-06-05T03:27:57.697Z,36.30
2018-06-05T03:30:25.228Z,35.83
2018-06-05T03:32:52.716Z,36.93
2018-06-05T03:35:20.256Z,38.30
2018-06-05T03:37:47.768Z,36.00
2018-06-05T03:40:15.293Z,41.77
2018-06-05T03:42:42.783Z,39.10
2018-06-05T03:45:10.288Z,40.30
2018-06-05T03:47:37.821Z,38.80
2018-06-05T03:50:05.401Z,37.00
2018-06-05T03:52:32.939Z,36.30
2018-06-05T03:55:00.465Z,37.93
2018-06-05T03:57:28.017Z,36.60
2018-06-05T03:59:55.556Z,35.67
2018-06-05T04:02:23.051Z,35.50
2018-06-05T04:04:50.572Z,35.50
2018-06-05T04:07:18.112Z,34.27
2018-06-05T04:09:45.648Z,37.03
2018-06-05T04:12:13.161Z,34.90
2018-06-05T04:14:40.705Z,34.90
2018-06-05T04:17:08.219Z,32.50
2018-06-05T04:19:35.757Z,36.47
2018-06-05T04:22:03.273Z,35.60
2018-06-05T04:24:30.812Z,33.93
2018-06-05T04:26:58.322Z,34.20
2018-06-05T04:29:25.844Z,35.03
2018-06-05T04:31:53.951Z,34.73
2018-06-05T04:34:21.500Z,39.43
2018-06-05T04:36:49.068Z,35.17
2018-06-05T04:39:16.617Z,36.27
2018-06-05T04:41:44.121Z,37.20
2018-06-05T04:44:11.656Z,36.77
2018-06-05T04:46:39.163Z,35.50
2018-06-05T04:49:06.700Z,37.77
2018-06-05T04:51:34.204Z,35.13
2018-06-05T04:54:01.747Z,34.67
2018-06-05T04:56:29.273Z,33.33
2018-06-05T04:58:56.789Z,35.30
2018-06-05T05:01:24.314Z,33.37
2018-06-05T05:03:51.882Z,29.87
2018-06-05T05:06:20.048Z,32.27
2018-06-05T05:08:47.545Z,29.27
2018-06-05T05:11:15.138Z,30.13
2018-06-05T05:13:42.704Z,31.07
2018-06-05T05:16:10.220Z,26.00
2018-06-05T05:18:37.716Z,27.50
2018-06-05T05:21:05.258Z,31.43
2018-06-05T05:23:32.772Z,32.97
2018-06-05T05:26:00.296Z,32.40
2018-06-05T05:28:27.804Z,31.57
2018-06-05T05:30:55.403Z,32.27
2018-06-05T05:33:22.920Z,32.87
2018-06-05T05:35:50.473Z,29.03
2018-06-05T05:38:18.048Z,30.13
2018-06-05T05:40:45.579Z,30.23
2018-06-05T05:43:13.885Z,29.40
2018-06-05T05:45:41.415Z,31.30
2018-06-05T05:48:08.934Z,30.17
2018-06-05T05:50:36.535Z,30.47
2018-06-05T05:53:04.119Z,28.37
2018-06-05T05:55:31.647Z,30.60
2018-06-05T05:57:59.177Z,30.17
2018-06-05T06:00:26.741Z,25.70
2018-06-05T06:02:54.232Z,28.10
2018-06-05T06:05:21.782Z,30.80
2018-06-05T06:07:49.305Z,31.03
2018-06-05T06:10:16.849Z,29.03
2018-06-05T06:12:44.352Z,29.37
2018-06-05T06:15:11.973Z,26.67
2018-06-05T06:17:39.493Z,31.47
2018-06-05T06:20:07.009Z,33.47
2018-06-05T06:22:34.501Z,32.67
2018-06-05T06:25:02.070Z,29.57
2018-06-05T06:27:29.567Z,34.07
2018-06-05T06:29:57.161Z,30.17
2018-06-05T06:32:24.739Z,31.03
2018-06-05T06:34:52.248Z,28.30
2018-06-05T06:37:19.787Z,28.87
2018-06-05T06:39:47.357Z,29.90
2018-06-05T06:42:14.888Z,32.60
2018-06-05T06:44:42.460Z,31.87
2018-06-05T06:47:09.987Z,30.40
2018-06-05T06:49:37.472Z,34.20
2018-06-05T06:52:05.013Z,29.73
2018-06-05T06:54:32.606Z,31.00
2018-06-05T06:57:00.113Z,31.17
2018-06-05T06:59:27.611Z,32.40
2018-06-05T07:01:55.168Z,27.90
2018-06-05T07:04:22.683Z,30.80
2018-06-05T07:06:50.244Z,29.00
2018-06-05T07:09:17.760Z,30.43
2018-06-05T07:11:45.281Z,30.27
2018-06-05T07:14:12.777Z,31.10
2018-06-05T07:16:40.312Z,30.23
2018-06-05T07:19:07.823Z,33.60
2018-06-05T07:21:35.362Z,31.33
2018-06-05T07:24:02.953Z,31.97
2018-06-05T07:26:30.478Z,31.73
2018-06-05T07:28:58.011Z,28.57
2018-06-05T07:31:25.583Z,32.90
2018-06-05T07:33:53.122Z,31.17
2018-06-05T07:36:20.680Z,30.40
2018-06-05T07:38:48.240Z,27.20
2018-06-05T07:41:15.869Z,34.17
2018-06-05T07:43:43.361Z,32.03
2018-06-05T07:46:10.898Z,28.00
2018-06-05T07:48:38.441Z,32.73
2018-06-05T07:51:05.985Z,31.40
2018-06-05T07:53:33.508Z,32.27
2018-06-05T07:56:01.051Z,28.97
2018-06-05T07:58:28.708Z,28.27
2018-06-05T08:00:56.266Z,28.70
2018-06-05T08:03:23.744Z,28.63
2018-06-05T08:05:51.284Z,29.80
2018-06-05T08:08:18.781Z,27.70
2018-06-05T08:10:46.309Z,31.17
2018-06-05T08:13:13.860Z,27.87
2018-06-05T08:15:41.353Z,27.87
2018-06-05T08:18:08.884Z,27.37
2018-06-05T08:20:37.086Z,28.70
2018-06-05T08:23:04.728Z,25.47
2018-06-05T08:25:32.265Z,25.60
2018-06-05T08:27:59.802Z,27.07
2018-06-05T08:30:27.363Z,24.40
2018-06-05T08:32:54.920Z,25.20
2018-06-05T08:35:22.442Z,25.17
2018-06-05T08:37:50.022Z,25.07
2018-06-05T08:40:17.493Z,24.70
2018-06-05T08:42:45.021Z,26.90
2018-06-05T08:45:12.549Z,26.80
2018-06-05T08:47:40.109Z,25.30
2018-06-05T08:50:07.634Z,26.60
2018-06-05T08:52:35.657Z,27.53
2018-06-05T08:55:03.296Z,26.13
2018-06-05T08:57:30.837Z,27.10
2018-06-05T08:59:58.410Z,29.53
2018-06-05T09:02:26.012Z,25.67
2018-06-05T09:04:53.522Z,27.17
2018-06-05T09:07:21.079Z,24.90
2018-06-05T09:09:48.724Z,27.00
2018-06-05T09:12:16.282Z,27.07
2018-06-05T09:14:43.820Z,27.47
2018-06-05T09:17:11.353Z,25.53
2018-06-05T09:19:38.885Z,25.57
2018-06-05T09:22:06.881Z,26.37
2018-06-05T09:24:34.409Z,25.93
2018-06-05T09:27:01.977Z,25.80
2018-06-05T09:29:29.481Z,25.67
2018-06-05T09:31:57.061Z,27.37
2018-06-05T09:34:24.618Z,26.30
2018-06-05T09:36:52.052Z,26.70
2018-06-05T09:39:19.572Z,27.70
2018-06-05T09:41:47.088Z,25.80
2018-06-05T09:44:14.607Z,24.87
2018-06-05T09:46:42.244Z,24.33
2018-06-05T09:49:09.790Z,27.10
2018-06-05T09:51:37.305Z,25.57
2018-06-05T09:54:04.965Z,26.77
2018-06-05T09:56:32.490Z,22.93
2018-06-05T09:59:00.065Z,25.70
2018-06-05T10:01:27.572Z,23.77
2018-06-05T10:03:55.201Z,22.47
2018-06-05T10:06:22.700Z,23.23
2018-06-05T10:08:50.231Z,25.37
2018-06-05T10:11:17.765Z,23.90
2018-06-05T10:13:45.331Z,24.33
2018-06-05T10:16:12.873Z,24.07
2018-06-05T10:18:40.418Z,23.30
2018-06-05T10:21:07.920Z,27.40
2018-06-05T10:23:35.441Z,23.00
2018-06-05T10:26:03.048Z,20.70
2018-06-05T10:28:30.551Z,28.37
2018-06-05T10:30:58.100Z,28.80
2018-06-05T10:33:25.604Z,29.23
2018-06-05T10:35:53.094Z,28.60
2018-06-05T10:38:20.634Z,28.30
2018-06-05T10:40:48.174Z,30.60
2018-06-05T10:43:15.772Z,26.23
2018-06-05T10:45:43.292Z,24.30
2018-06-05T10:48:10.777Z,28.80
2018-06-05T10:50:38.777Z,30.27
2018-06-05T10:53:06.692Z,31.23
2018-06-05T10:55:34.839Z,29.90
2018-06-05T10:58:02.385Z,29.63
2018-06-05T11:00:30.021Z,29.33
2018-06-05T11:02:57.631Z,30.30
2018-06-05T11:05:25.365Z,30.17
2018-06-05T11:07:52.899Z,29.40
2018-06-05T11:10:20.437Z,30.23
2018-06-05T11:12:48.005Z,32.33
2018-06-05T11:15:15.545Z,31.60
2018-06-05T11:17:43.039Z,32.93
2018-06-05T11:20:10.581Z,30.17
2018-06-05T11:22:38.272Z,31.83
2018-06-05T11:25:05.953Z,33.90
2018-06-05T11:27:33.483Z,30.90
2018-06-05T11:30:01.119Z,30.30
2018-06-05T11:32:28.579Z,31.23
2018-06-05T11:34:56.118Z,33.83
2018-06-05T11:37:24.948Z,32.10
2018-06-05T11:39:52.508Z,30.50
2018-06-05T11:42:20.017Z,30.47
2018-06-05T11:44:47.524Z,31.80
2018-06-05T11:47:15.035Z,30.90
2018-06-05T11:49:42.594Z,29.77
2018-06-05T11:52:10.178Z,35.83
2018-06-05T11:54:37.689Z,34.17
2018-06-05T11:57:05.268Z,35.87
2018-06-05T11:59:32.804Z,31.23
2018-06-05T12:02:00.405Z,36.50
2018-06-05T12:04:27.950Z,38.90
2018-06-05T12:06:55.534Z,40.53
2018-06-05T12:09:23.093Z,41.53
2018-06-05T12:11:50.674Z,36.70
2018-06-05T12:14:18.233Z,36.33
2018-06-05T12:16:45.719Z,39.73
2018-06-05T12:19:13.248Z,39.87
2018-06-05T12:21:40.758Z,34.77
2018-06-05T12:24:08.293Z,36.83
2018-06-05T12:26:35.800Z,40.40
2018-06-05T12:29:03.624Z,40.80
2018-06-05T12:31:31.178Z,44.47
2018-06-05T12:33:58.721Z,48.00
2018-06-05T12:36:26.247Z,42.17
2018-06-05T12:41:28.118Z,39.70
2018-06-05T12:43:55.682Z,41.70
2018-06-05T12:46:23.206Z,41.00
2018-06-05T12:48:50.755Z,41.30
2018-06-05T12:51:18.282Z,44.10
2018-06-05T12:53:46.004Z,41.30
2018-06-05T12:56:13.697Z,41.80
2018-06-05T12:58:41.224Z,33.40
2018-06-05T13:01:08.741Z,39.00
2018-06-05T13:03:36.255Z,38.40
2018-06-05T13:06:03.873Z,38.53
2018-06-05T13:08:31.400Z,40.10
2018-06-05T13:10:58.966Z,38.40
2018-06-05T13:13:26.487Z,37.60
2018-06-05T13:15:54.055Z,38.00
2018-06-05T13:18:21.619Z,36.37
2018-06-05T13:20:49.253Z,35.80
2018-06-05T13:23:16.849Z,36.80
2018-06-05T13:25:44.649Z,40.47
2018-06-05T13:28:12.175Z,40.03
2018-06-05T13:30:40.003Z,33.20
2018-06-05T13:33:07.574Z,31.30
2018-06-05T13:35:35.153Z,27.63
2018-06-05T13:38:03.031Z,24.00
2018-06-05T13:40:30.665Z,22.77
2018-06-05T13:42:58.470Z,25.73
2018-06-05T13:45:26.024Z,23.10
2018-06-05T13:47:53.548Z,29.43
2018-06-05T13:50:21.154Z,26.07
2018-06-05T13:52:48.684Z,24.40
2018-06-05T13:55:16.270Z,27.03
2018-06-05T13:57:43.821Z,25.83
2018-06-05T14:00:11.437Z,27.47
2018-06-05T14:02:40.872Z,22.63
2018-06-05T14:05:08.433Z,23.00
2018-06-05T14:07:35.982Z,21.20
2018-06-05T14:10:06.852Z,23.97
2018-06-05T14:12:34.486Z,27.70
2018-06-05T14:15:02.235Z,25.83
2018-06-05T14:17:29.860Z,26.40
2018-06-05T14:19:59.149Z,23.87
2018-06-05T14:22:26.637Z,24.63
2018-06-05T14:24:54.171Z,25.30
2018-06-05T14:27:21.711Z,26.07
2018-06-05T14:29:49.261Z,26.00
2018-06-05T14:32:16.960Z,26.77
2018-06-05T14:34:44.501Z,27.20
2018-06-05T14:37:12.141Z,26.23
2018-06-05T14:39:39.692Z,27.00
2018-06-05T14:42:07.324Z,25.27
2018-06-05T14:44:34.864Z,29.00
2018-06-05T14:47:02.498Z,28.17
2018-06-05T14:49:30.170Z,25.17
2018-06-05T14:51:57.643Z,29.00
2018-06-05T14:54:25.227Z,28.70
2018-06-05T14:56:52.785Z,30.60
2018-06-05T14:59:20.316Z,28.00
2018-06-05T15:01:47.828Z,26.60
2018-06-05T15:04:15.364Z,27.93
2018-06-05T15:06:42.937Z,27.17
2018-06-05T15:09:10.513Z,29.27
2018-06-05T15:11:38.157Z,29.67
2018-06-05T15:14:05.777Z,29.50
2018-06-05T15:16:33.300Z,30.20
2018-06-05T15:19:00.797Z,30.57
2018-06-05T15:21:28.353Z,30.17
2018-06-05T15:23:56.014Z,29.97
2018-06-05T15:26:23.595Z,28.87
2018-06-05T15:28:51.135Z,26.77
2018-06-05T15:31:18.858Z,28.50
2018-06-05T15:33:46.396Z,29.70
2018-06-05T15:36:13.940Z,29.60
2018-06-05T15:38:41.680Z,29.53
2018-06-05T15:41:09.284Z,28.43
2018-06-05T15:43:36.919Z,29.70
2018-06-05T15:46:04.565Z,30.97
2018-06-05T15:48:32.121Z,29.20
2018-06-05T15:50:59.689Z,37.23
2018-06-05T15:53:27.208Z,31.13
2018-06-05T15:55:55.757Z,29.93
2018-06-05T15:58:23.278Z,29.53
2018-06-05T16:00:50.864Z,29.90
2018-06-05T16:03:18.363Z,29.47
2018-06-05T16:05:45.918Z,30.67
2018-06-05T16:08:13.481Z,28.87
2018-06-05T16:10:41.247Z,28.97
2018-06-05T16:13:08.803Z,30.23
2018-06-05T16:15:36.216Z,30.87
2018-06-05T16:18:04.013Z,27.40
2018-06-05T16:20:31.657Z,29.43
2018-06-05T16:22:59.182Z,30.40
2018-06-05T16:25:26.728Z,28.70
2018-06-05T16:27:54.236Z,30.80
2018-06-05T16:30:21.886Z,29.97
2018-06-05T16:32:49.457Z,30.07
2018-06-05T16:35:16.997Z,30.77
2018-06-05T16:37:44.497Z,31.33
2018-06-05T16:40:12.120Z,31.83
2018-06-05T16:42:39.667Z,32.87
2018-06-05T16:45:07.233Z,30.87
2018-06-05T16:47:34.787Z,30.40
2018-06-05T16:50:02.292Z,30.03
2018-06-05T16:52:29.913Z,31.47
2018-06-05T16:54:57.489Z,31.87
2018-06-05T16:57:25.202Z,29.33
2018-06-05T16:59:52.845Z,31.17
2018-06-05T17:02:20.442Z,29.87
2018-06-05T17:04:48.019Z,31.07
2018-06-05T17:07:15.565Z,30.70
2018-06-05T17:09:43.061Z,31.07
2018-06-05T17:12:10.600Z,28.90
2018-06-05T17:14:38.097Z,33.30
2018-06-05T17:17:05.973Z,35.17
2018-06-05T17:19:33.929Z,28.83
2018-06-05T17:22:01.543Z,28.17
2018-06-05T17:24:29.273Z,28.77
2018-06-05T17:26:57.078Z,27.90
2018-06-05T17:29:24.599Z,27.30
2018-06-05T17:31:52.122Z,26.60
2018-06-05T17:34:19.872Z,27.97
2018-06-05T17:36:47.533Z,27.40
2018-06-05T17:39:15.113Z,28.63
2018-06-05T17:41:42.977Z,27.47
2018-06-05T17:44:10.603Z,30.10
2018-06-05T17:46:38.129Z,28.70
2018-06-05T17:49:05.693Z,26.70
2018-06-05T17:51:33.226Z,27.60
2018-06-05T17:54:00.895Z,27.30
2018-06-05T17:56:28.496Z,26.70
2018-06-05T17:58:56.007Z,27.27
2018-06-05T18:01:23.705Z,26.90
2018-06-05T18:03:51.335Z,28.60
2018-06-05T18:06:18.892Z,27.53
2018-06-05T18:08:46.584Z,28.30
2018-06-05T18:11:14.405Z,27.13
2018-06-05T18:13:41.975Z,27.60
2018-06-05T18:16:09.642Z,25.50
2018-06-05T18:18:37.991Z,28.47
2018-06-05T18:21:06.070Z,28.70
2018-06-05T18:23:33.536Z,27.60
2018-06-05T18:26:01.446Z,29.03
2018-06-05T18:28:29.310Z,29.70
2018-06-05T18:30:57.073Z,28.57
2018-06-05T18:33:25.002Z,27.27
2018-06-05T18:35:52.865Z,27.63
2018-06-05T18:38:20.458Z,26.80
2018-06-05T18:40:49.068Z,28.50
2018-06-05T18:43:16.633Z,26.83
2018-06-05T18:45:44.310Z,28.83
2018-06-05T18:48:12.278Z,28.00
2018-06-05T18:50:40.326Z,25.17
2018-06-05T18:53:07.862Z,26.80
2018-06-05T18:55:35.397Z,26.43
2018-06-05T18:58:02.952Z,27.87
2018-06-05T19:00:30.523Z,26.17
2018-06-05T19:02:58.043Z,27.77
2018-06-05T19:05:25.638Z,26.50
2018-06-05T19:07:53.161Z,27.80
2018-06-05T19:10:21.533Z,28.20
2018-06-05T19:12:49.074Z,28.07
2018-06-05T19:15:16.955Z,27.57
2018-06-05T19:17:45.169Z,27.67
2018-06-05T19:20:12.723Z,26.23
2018-06-05T19:22:41.280Z,28.17
2018-06-05T19:25:09.618Z,27.80
2018-06-05T19:27:37.550Z,29.37
2018-06-05T19:30:05.135Z,28.13
2018-06-05T19:32:33.539Z,26.73
2018-06-05T19:35:01.682Z,27.83
2018-06-05T19:37:30.073Z,28.13
2018-06-05T19:39:57.790Z,27.90
2018-06-05T19:42:26.103Z,29.03
2018-06-05T19:44:53.972Z,29.63
2018-06-05T19:47:21.688Z,27.27
2018-06-05T19:49:49.248Z,29.90
2018-06-05T19:52:17.138Z,26.53
2018-06-05T19:54:45.367Z,28.57
2018-06-05T19:57:13.918Z,28.43
2018-06-05T19:59:42.201Z,29.07
2018-06-05T20:02:11.095Z,31.13
2018-06-05T20:04:39.313Z,27.97
2018-06-05T20:07:07.454Z,29.43
2018-06-05T20:09:35.358Z,29.47
2018-06-05T20:12:03.033Z,28.00
2018-06-05T20:14:30.564Z,27.07
2018-06-05T20:16:58.537Z,29.77
2018-06-05T20:19:27.045Z,29.00
2018-06-05T20:21:55.872Z,29.73
2018-06-05T20:24:23.376Z,28.17
2018-06-05T20:26:51.132Z,29.80
2018-06-05T20:29:19.445Z,32.00
2018-06-05T20:31:46.944Z,32.47
2018-06-05T20:34:14.690Z,30.30
2018-06-05T20:36:42.765Z,31.63
2018-06-05T20:39:11.519Z,32.40
2018-06-05T20:41:39.979Z,30.70
2018-06-05T20:44:08.140Z,33.00
2018-06-05T20:46:35.661Z,31.37
2018-06-05T20:49:03.381Z,34.17
2018-06-05T20:51:30.962Z,31.30
2018-06-05T20:53:58.496Z,33.93
2018-06-05T20:56:26.012Z,32.13
2018-06-05T20:58:53.719Z,31.20
2018-06-05T21:01:21.243Z,34.70
2018-06-05T21:03:49.217Z,33.17
2018-06-05T21:06:16.950Z,32.37
2018-06-05T21:08:44.489Z,32.87
2018-06-05T21:11:11.987Z,32.87
2018-06-05T21:13:39.545Z,32.37
2018-06-05T21:16:07.066Z,48.57
2018-06-05T21:18:34.601Z,40.53
2018-06-05T21:21:02.105Z,34.33
2018-06-05T21:23:29.625Z,32.30
2018-06-05T21:25:57.146Z,47.80
2018-06-05T21:28:24.941Z,40.40
2018-06-05T21:30:52.497Z,32.83
2018-06-05T21:33:20.020Z,32.47
2018-06-05T21:35:47.554Z,31.97
2018-06-05T21:38:15.073Z,33.33
2018-06-05T21:40:42.633Z,33.60
2018-06-05T21:43:10.472Z,31.40
2018-06-05T21:45:37.997Z,33.73
2018-06-05T21:48:05.621Z,34.13
2018-06-05T21:50:33.425Z,31.17
2018-06-05T21:53:01.013Z,32.93
2018-06-05T21:55:28.641Z,33.33
2018-06-05T21:57:56.368Z,34.80
2018-06-05T22:00:24.136Z,32.40
2018-06-05T22:02:51.661Z,33.27
2018-06-05T22:05:19.373Z,34.60
2018-06-05T22:07:46.909Z,31.23
2018-06-05T22:10:14.585Z,32.60
2018-06-05T22:12:42.429Z,31.33
2018-06-05T22:15:10.006Z,33.60
2018-06-05T22:17:37.808Z,33.97
2018-06-05T22:20:05.576Z,33.07
2018-06-05T22:22:33.108Z,32.80
2018-06-05T22:25:00.677Z,34.23
2018-06-05T22:27:30.521Z,31.47
2018-06-05T22:29:58.029Z,33.70
2018-06-05T22:32:25.544Z,32.77
2018-06-05T22:34:53.049Z,34.47
2018-06-05T22:37:20.578Z,34.40
2018-06-05T22:39:48.094Z,34.53
2018-06-05T22:42:15.621Z,34.17
2018-06-05T22:44:43.121Z,32.40
2018-06-05T22:47:10.659Z,33.27
2018-06-05T22:49:38.170Z,31.67
2018-06-05T22:52:05.696Z,34.17
2018-06-05T22:54:33.219Z,37.70
2018-06-05T22:57:00.781Z,34.03
2018-06-05T22:59:28.306Z,33.27
2018-06-05T23:01:55.836Z,34.80
2018-06-05T23:04:23.340Z,35.23
2018-06-05T23:06:50.885Z,35.40
2018-06-05T23:09:18.405Z,35.30
2018-06-05T23:11:45.925Z,33.80
2018-06-05T23:14:13.460Z,35.00
2018-06-05T23:16:41.018Z,35.87
2018-06-05T23:19:08.548Z,33.20
2018-06-05T23:21:35.960Z,34.73
2018-06-05T23:24:03.519Z,38.00
2018-06-05T23:26:31.055Z,33.40
2018-06-05T23:28:58.565Z,35.30
2018-06-05T23:31:26.090Z,34.80
2018-06-05T23:33:53.621Z,37.03
2018-06-05T23:36:21.117Z,35.90
2018-06-05T23:38:48.653Z,31.67
2018-06-05T23:41:16.173Z,36.10
2018-06-05T23:43:43.702Z,33.43
2018-06-05T23:46:11.190Z,35.30
2018-06-05T23:48:38.728Z,33.37
2018-06-05T23:51:06.239Z,32.33
2018-06-05T23:53:33.790Z,33.73
2018-06-05T23:56:01.326Z,33.70
2018-06-05T23:58:28.852Z,33.30
